Time;durP1;ratioP1;P1;durP2;ratioP2;P2;SDS_P1;SDS_P2;PMS_P1;PMS_P2;Temp;Humidity;BMP_temperature;BMP_pressure;BME280_temperature;BME280_humidity;BME280_pressure;Samples;Min_cycle;Max_cycle;Signal;HPM_P1;HPM_P2
2023/06/23 00:01:20;;;;;;;10.30;7.90;;;;;;;20.20;76.56;98888.47;105154;1260;70961;-23
2023/06/23 00:10:28;;;;;;;12.70;9.60;;;;;;;19.49;79.11;98882.30;103075;1288;600417;-23
2023/06/23 00:20:34;;;;;;;10.30;8.80;;;;;;;19.76;78.15;98893.10;102686;1292;600102;-22
2023/06/23 00:23:02;;;;;;;11.30;9.70;;;;;;;19.53;78.66;98896.33;104812;1267;61162;-22
2023/06/23 00:25:29;;;;;;;15.40;10.00;;;;;;;19.31;79.02;98892.11;104833;1271;61264;-22
2023/06/23 00:35:39;;;;;;;13.00;9.50;;;;;;;19.82;77.83;98886.29;102697;1292;600065;-22
2023/06/23 00:38:07;;;;;;;14.30;10.30;;;;;;;19.63;78.01;98883.63;104788;1267;61106;-22
2023/06/23 00:40:36;;;;;;;13.90;10.50;;;;;;;19.37;79.06;98879.88;104917;1267;61231;-22
2023/06/23 00:43:04;;;;;;;9.30;7.60;;;;;;;19.21;79.62;98878.16;104937;1270;72250;-22
2023/06/23 00:45:31;;;;;;;13.00;8.00;;;;;;;19.63;78.88;98875.75;104909;1269;72706;-22
2023/06/23 00:48:01;;;;;;;10.00;8.20;;;;;;;19.99;77.05;98878.54;104923;1267;72687;-22
2023/06/23 00:56:43;;;;;;;12.10;9.70;;;;;;;19.24;78.41;98870.77;102636;1292;599890;-22
2023/06/23 00:59:10;;;;;;;8.00;6.40;;;;;;;19.01;78.97;98875.80;105238;1259;61178;-22
2023/06/23 01:01:38;;;;;;;10.20;7.90;;;;;;;19.37;79.09;98875.11;105232;1259;61151;-22
2023/06/23 01:04:08;;;;;;;12.20;9.30;;;;;;;19.61;78.96;98879.11;105228;1261;71027;-22
2023/06/23 01:06:49;;;;;;;12.10;10.40;;;;;;;19.50;79.17;98875.90;105208;1260;74282;-22
2023/06/23 01:09:25;;;;;;;11.70;10.50;;;;;;;19.28;80.00;98874.01;103290;1258;2653352;-22
2023/06/23 01:12:03;;;;;;;12.30;10.60;;;;;;;18.95;81.55;98876.56;105335;1256;61125;-22
2023/06/23 01:14:34;;;;;;;10.80;7.70;;;;;;;18.78;82.78;98881.48;105244;1266;61199;-22
2023/06/23 01:17:09;;;;;;;10.60;9.50;;;;;;;19.14;81.84;98877.50;105201;1256;72180;-22
2023/06/23 01:19:55;;;;;;;14.20;9.90;;;;;;;19.40;80.50;98879.79;105132;1256;74289;-22
2023/06/23 01:30:02;;;;;;;10.50;7.80;;;;;;;18.84;82.55;98878.16;102809;1292;600211;-22
2023/06/23 01:32:34;;;;;;;9.90;8.30;;;;;;;19.35;81.03;98873.88;104847;1271;61084;-22
2023/06/23 01:42:30;;;;;;;12.20;10.00;;;;;;;18.95;80.19;98869.06;102697;1295;600287;-22
2023/06/23 01:52:40;;;;;;;10.50;9.00;;;;;;;19.72;77.62;98861.94;102675;1292;600298;-22
2023/06/23 01:55:08;;;;;;;10.90;9.00;;;;;;;19.49;77.85;98860.34;104782;1271;61181;-22
2023/06/23 01:57:38;;;;;;;14.40;9.60;;;;;;;19.23;78.34;98862.08;108575;1265;60684;-23
2023/06/23 02:00:11;;;;;;;10.60;8.70;;;;;;;19.00;78.97;98860.95;108604;1265;72301;-23
2023/06/23 02:02:49;;;;;;;9.00;6.90;;;;;;;18.83;79.65;98861.08;108642;1266;72098;-23
2023/06/23 02:05:17;;;;;;;9.00;6.90;;;;;;;19.36;79.61;98861.54;106684;1263;2485805;-23
2023/06/23 02:07:46;;;;;;;12.10;7.00;;;;;;;19.84;77.81;98858.23;108702;1263;58869;-23
2023/06/23 02:10:15;;;;;;;12.40;7.90;;;;;;;19.88;76.85;98854.05;108619;1263;58745;-23
2023/06/23 02:12:43;;;;;;;11.30;8.30;;;;;;;19.71;76.70;98857.54;108690;1263;71522;-23
2023/06/23 02:15:12;;;;;;;12.80;9.70;;;;;;;19.48;77.13;98859.18;108693;1263;74311;-23
2023/06/23 02:17:40;;;;;;;11.20;8.80;;;;;;;19.24;77.71;98858.77;108606;1263;72668;-23
2023/06/23 02:20:15;;;;;;;9.10;6.90;;;;;;;19.07;78.42;98861.38;108725;1263;60448;-23
2023/06/23 02:22:47;;;;;;;10.00;6.90;;;;;;;19.48;78.62;98864.14;108705;1263;60189;-23
2023/06/23 02:25:14;;;;;;;8.90;7.80;;;;;;;19.93;76.83;98861.48;108729;1263;71772;-23
2023/06/23 02:27:43;;;;;;;11.20;8.60;;;;;;;19.98;76.08;98864.09;108700;1263;73435;-23
2023/06/23 02:30:11;;;;;;;10.40;8.90;;;;;;;19.86;75.97;98864.27;108728;1263;72733;-23
2023/06/23 02:32:39;;;;;;;10.20;9.20;;;;;;;19.69;76.18;98863.50;108683;1263;60043;-23
2023/06/23 02:35:12;;;;;;;11.40;10.20;;;;;;;19.56;76.49;98864.42;108732;1263;59984;-23
2023/06/23 02:37:40;;;;;;;;;;;;;;;19.43;77.00;98865.83;108750;1263;73151;-23
2023/06/23 02:40:10;;;;;;;10.00;7.10;;;;;;;19.84;77.11;98868.42;108741;1263;73565;-24
2023/06/23 02:42:47;;;;;;;9.50;7.80;;;;;;;20.42;75.26;98871.13;108569;1263;72658;-23
2023/06/23 02:45:19;;;;;;;10.00;8.10;;;;;;;20.58;74.23;98864.75;108672;1265;59185;-23
2023/06/23 02:47:46;;;;;;;11.20;8.60;;;;;;;20.54;73.92;98863.51;108697;1262;60017;-23
2023/06/23 02:50:14;;;;;;;10.90;9.00;;;;;;;20.48;73.62;98864.36;108722;1263;73053;-23
2023/06/23 02:52:44;;;;;;;11.30;9.70;;;;;;;20.48;73.42;98864.25;108635;1263;74333;-23
2023/06/23 02:55:12;;;;;;;11.90;9.80;;;;;;;20.49;73.32;98865.31;108706;1263;72721;-23
2023/06/23 02:57:40;;;;;;;9.40;7.40;;;;;;;20.54;73.45;98869.81;108501;1264;61745;-23
2023/06/23 03:00:12;;;;;;;10.20;7.00;;;;;;;21.17;73.04;98866.13;108557;1264;60006;-23
2023/06/23 03:02:42;;;;;;;12.00;8.60;;;;;;;21.88;70.67;98866.61;108706;1263;73064;-23
2023/06/23 03:05:09;;;;;;;11.00;8.20;;;;;;;22.15;69.38;98872.85;108527;1263;74311;-24
2023/06/23 03:07:38;;;;;;;12.00;9.30;;;;;;;22.18;68.81;98874.80;108609;1264;72700;-23
2023/06/23 03:10:07;;;;;;;12.50;9.40;;;;;;;22.03;69.13;98876.05;108479;1264;60333;-23
2023/06/23 03:12:34;;;;;;;11.40;9.40;;;;;;;21.84;69.53;98882.16;108501;1265;59143;-23
2023/06/23 03:15:04;;;;;;;12.30;10.00;;;;;;;21.72;69.85;98883.04;108674;1266;72092;-23
2023/06/23 03:17:31;;;;;;;14.10;9.70;;;;;;;21.60;70.09;98882.69;108664;1264;73437;-24
2023/06/23 03:20:24;;;;;;;14.50;10.60;;;;;;;21.55;70.04;98880.21;108636;1266;71382;-23
2023/06/23 03:23:03;;;;;;;9.40;7.80;;;;;;;21.36;70.74;98873.32;108470;1264;61850;-23
2023/06/23 03:25:30;;;;;;;10.30;9.20;;;;;;;21.64;70.04;98871.40;108332;1264;60027;-23
2023/06/23 03:27:59;;;;;;;10.60;9.40;;;;;;;21.91;69.84;98867.85;108696;1266;73035;-24
2023/06/23 03:30:33;;;;;;;11.70;10.30;;;;;;;21.84;69.36;98868.99;108534;1264;74341;-23
2023/06/23 03:33:03;;;;;;;15.80;11.00;;;;;;;21.57;70.03;98874.89;108243;1264;71494;-23
2023/06/23 03:35:33;;;;;;;13.20;10.50;;;;;;;21.35;70.75;98875.15;108502;1265;60109;-23
2023/06/23 03:38:02;;;;;;;19.40;10.80;;;;;;;21.19;71.32;98879.95;108492;1266;58718;-23
2023/06/23 03:40:35;;;;;;;17.70;10.30;;;;;;;21.11;71.83;98875.85;108493;1266;73081;-24
2023/06/23 03:43:09;;;;;;;9.40;7.10;;;;;;;21.17;72.73;98869.64;108508;1264;74342;-23
2023/06/23 03:45:37;;;;;;;11.50;7.30;;;;;;;22.16;71.91;98867.21;108512;1264;71491;-23
2023/06/23 03:48:06;;;;;;;9.50;7.70;;;;;;;23.14;69.11;98871.49;108554;1266;58874;-23
2023/06/23 03:50:34;;;;;;;9.80;8.80;;;;;;;23.56;66.46;98865.30;108496;1265;59426;-23
2023/06/23 03:53:02;;;;;;;24.50;9.70;;;;;;;23.43;64.92;98865.35;108578;1264;73034;-24
2023/06/23 03:55:33;;;;;;;11.90;9.40;;;;;;;23.26;66.06;98871.94;108501;1264;73414;-23
2023/06/23 03:58:06;;;;;;;11.00;9.90;;;;;;;23.35;66.08;98870.42;108513;1266;72652;-23
2023/06/23 04:00:35;;;;;;;11.50;10.30;;;;;;;23.46;65.83;98871.25;108492;1267;58764;-23
2023/06/23 04:03:07;;;;;;;11.80;10.60;;;;;;;23.43;65.99;98869.02;108321;1266;59906;-23
2023/06/23 04:05:36;;;;;;;10.90;9.50;;;;;;;23.29;65.96;98870.91;108519;1266;73108;-23
2023/06/23 04:08:04;;;;;;;13.20;9.60;;;;;;;23.13;66.66;98872.09;108585;1264;74333;-23
2023/06/23 04:10:32;;;;;;;15.40;9.50;;;;;;;22.89;67.32;98868.98;108564;1266;72628;-23
2023/06/23 04:13:00;;;;;;;10.80;9.70;;;;;;;22.60;67.60;98868.48;108496;1266;60041;-23
2023/06/23 04:15:27;;;;;;;11.40;9.80;;;;;;;22.41;68.64;98866.81;108596;1266;58812;-23
2023/06/23 04:17:55;;;;;;;11.20;9.70;;;;;;;22.31;69.28;98868.08;108525;1265;73076;-24
2023/06/23 04:20:23;;;;;;;11.70;10.10;;;;;;;22.28;69.50;98868.97;108515;1265;74315;-23
2023/06/23 04:22:52;;;;;;;11.40;10.20;;;;;;;22.32;69.59;98870.06;108525;1266;72706;-23
2023/06/23 04:25:20;;;;;;;8.10;6.60;;;;;;;22.32;69.77;98867.63;108560;1267;61174;-23
2023/06/23 04:27:49;;;;;;;9.80;7.00;;;;;;;22.97;68.45;98868.64;108624;1264;60013;-23
2023/06/23 04:30:16;;;;;;;8.90;8.00;;;;;;;23.59;65.67;98872.40;108513;1266;73089;-23
2023/06/23 04:32:44;;;;;;;10.80;8.60;;;;;;;23.78;65.73;98874.08;108595;1265;74399;-23
2023/06/23 04:35:11;;;;;;;14.60;9.70;;;;;;;23.76;65.16;98868.77;108548;1266;72690;-24
2023/06/23 04:37:47;;;;;;;12.10;9.40;;;;;;;23.48;65.23;98865.92;108593;1265;58881;-23
2023/06/23 04:40:33;;;;;;;10.40;9.10;;;;;;;23.26;65.96;98860.20;108567;1265;58725;-23
2023/06/23 04:43:09;;;;;;;11.20;8.90;;;;;;;23.29;66.48;98857.02;108554;1267;73023;-23
2023/06/23 04:45:41;;;;;;;10.50;9.40;;;;;;;23.32;66.49;98856.80;108556;1266;74312;-23
2023/06/23 04:48:11;;;;;;;10.60;9.10;;;;;;;23.38;66.79;98859.66;108574;1265;72804;-23
2023/06/23 04:50:39;;;;;;;10.90;9.60;;;;;;;23.47;66.59;98860.09;108507;1266;60093;-23
2023/06/23 04:53:20;;;;;;;18.20;9.50;;;;;;;23.56;66.69;98862.98;108320;1266;58791;-23
2023/06/23 04:55:50;;;;;;;14.00;9.50;;;;;;;23.60;66.67;98865.27;108468;1265;72207;-23
2023/06/23 04:58:18;;;;;;;9.40;8.50;;;;;;;23.61;66.94;98865.60;108473;1265;74659;-23
2023/06/23 05:00:45;;;;;;;9.30;8.30;;;;;;;23.69;66.15;98867.84;108583;1265;72733;-23
2023/06/23 05:03:13;;;;;;;11.40;8.60;;;;;;;23.60;66.00;98865.64;108547;1269;58817;-23
2023/06/23 05:05:41;;;;;;;9.20;8.30;;;;;;;23.55;67.35;98860.54;108509;1265;60019;-23
2023/06/23 05:08:10;;;;;;;11.10;9.10;;;;;;;23.73;66.94;98859.63;108488;1266;71858;-23
2023/06/23 05:10:38;;;;;;;10.30;8.60;;;;;;;23.81;67.18;98858.11;108207;1265;74357;-23
2023/06/23 05:13:06;;;;;;;11.00;8.20;;;;;;;23.92;66.57;98853.31;108661;1267;72711;-23
2023/06/23 05:15:34;;;;;;;9.60;8.80;;;;;;;24.03;66.57;98855.45;108669;1269;59168;-23
2023/06/23 05:18:01;;;;;;;9.90;8.60;;;;;;;24.03;66.96;98857.74;108695;1262;58832;-23
2023/06/23 05:20:29;;;;;;;18.60;9.00;;;;;;;24.15;66.38;98858.55;108713;1262;72298;-23
2023/06/23 05:22:57;;;;;;;9.10;8.10;;;;;;;24.30;65.54;98859.87;108699;1262;73230;-23
2023/06/23 05:25:29;;;;;;;21.00;8.90;;;;;;;24.37;64.82;98859.67;108693;1262;71421;-23
2023/06/23 05:28:00;;;;;;;11.30;9.10;;;;;;;24.47;65.02;98861.66;108597;1262;60077;-23
2023/06/23 05:30:28;;;;;;;11.50;7.60;;;;;;;24.48;63.89;98862.36;108672;1262;58760;-23
2023/06/23 05:32:56;;;;;;;10.50;8.20;;;;;;;24.58;64.45;98866.25;108676;1263;73090;-24
2023/06/23 05:35:24;;;;;;;9.70;8.70;;;;;;;24.70;63.91;98869.19;108673;1262;74402;-23
2023/06/23 05:37:52;;;;;;;9.00;8.10;;;;;;;24.78;63.90;98869.86;108714;1262;72672;-23
2023/06/23 05:40:19;;;;;;;9.50;8.40;;;;;;;24.83;64.05;98870.80;108736;1262;60283;-23
2023/06/23 05:42:47;;;;;;;13.60;8.20;;;;;;;24.91;64.34;98874.98;108721;1262;60040;-23
2023/06/23 05:45:14;;;;;;;11.50;8.80;;;;;;;25.13;63.86;98881.91;108713;1262;73040;-23
2023/06/23 05:47:59;;;;;;;10.10;9.10;;;;;;;25.29;62.88;98878.71;108748;1262;74315;-23
2023/06/23 05:50:29;;;;;;;11.00;8.70;;;;;;;25.39;61.90;98870.08;108666;1262;71430;-24
2023/06/23 05:52:59;;;;;;;10.60;9.10;;;;;;;25.41;62.46;98865.28;108749;1264;59156;-23
2023/06/23 05:55:27;;;;;;;10.60;9.50;;;;;;;25.39;62.52;98864.80;108695;1263;59514;-23
2023/06/23 05:57:59;;;;;;;10.30;8.80;;;;;;;25.48;62.00;98859.83;108730;1263;73082;-24
2023/06/23 06:00:33;;;;;;;14.70;8.90;;;;;;;25.69;61.34;98864.36;108701;1263;73095;-23
2023/06/23 06:03:02;;;;;;;11.00;8.60;;;;;;;25.96;61.27;98865.33;108561;1263;72726;-23
2023/06/23 06:05:30;;;;;;;10.30;8.90;;;;;;;26.09;61.10;98863.80;108679;1265;60040;-23
2023/06/23 06:07:57;;;;;;;9.50;8.50;;;;;;;26.20;60.94;98862.21;108675;1263;58720;-23
2023/06/23 06:10:26;;;;;;;10.00;8.80;;;;;;;26.27;60.45;98863.98;108694;1263;73933;-24
2023/06/23 06:12:54;;;;;;;10.60;8.70;;;;;;;26.43;60.37;98863.48;108692;1262;73237;-23
2023/06/23 06:15:21;;;;;;;11.90;8.10;;;;;;;26.46;59.62;98856.81;108724;1263;71616;-23
2023/06/23 06:17:49;;;;;;;9.20;8.40;;;;;;;26.47;59.77;98853.20;108709;1268;60054;-23
2023/06/23 06:20:17;;;;;;;9.60;8.60;;;;;;;26.49;59.67;98855.86;108716;1263;58765;-23
2023/06/23 06:22:45;;;;;;;8.80;8.00;;;;;;;26.54;59.64;98862.67;108679;1263;73904;-23
2023/06/23 06:25:12;;;;;;;9.40;8.50;;;;;;;26.57;60.28;98863.80;108557;1263;73156;-23
2023/06/23 06:27:41;;;;;;;9.20;8.30;;;;;;;26.63;60.33;98873.39;108582;1263;72671;-23
2023/06/23 06:30:09;;;;;;;9.80;8.80;;;;;;;26.65;59.79;98867.94;108576;1266;60086;-23
2023/06/23 06:32:37;;;;;;;102.50;13.50;;;;;;;26.71;59.79;98862.80;108584;1262;60082;-23
2023/06/23 06:35:06;;;;;;;12.20;8.40;;;;;;;26.74;59.80;98862.79;108606;1263;73861;-23
2023/06/23 06:37:35;;;;;;;9.10;8.20;;;;;;;26.91;59.24;98861.42;108615;1263;74545;-23
2023/06/23 06:40:06;;;;;;;11.10;8.60;;;;;;;27.02;59.24;98862.86;108551;1263;71507;-23
2023/06/23 06:42:34;;;;;;;12.00;8.40;;;;;;;27.08;59.27;98861.64;108589;1262;60129;-23
2023/06/23 06:45:01;;;;;;;9.50;8.40;;;;;;;27.11;59.65;98862.77;108691;1262;58686;-23
2023/06/23 06:47:29;;;;;;;16.60;9.00;;;;;;;26.90;58.52;98865.26;108706;1263;73848;-23
2023/06/23 06:49:58;;;;;;;9.20;8.00;;;;;;;26.90;59.10;98865.25;108681;1263;73552;-23
2023/06/23 06:52:26;;;;;;;11.70;8.50;;;;;;;26.98;59.30;98867.96;108530;1264;71487;-23
2023/06/23 06:55:18;;;;;;;11.00;9.20;;;;;;;26.89;59.55;98870.09;108499;1264;60543;-23
2023/06/23 06:57:46;;;;;;;9.60;8.60;;;;;;;26.64;59.83;98862.45;108662;1264;60077;-23
2023/06/23 07:00:18;;;;;;;10.10;9.10;;;;;;;26.48;60.84;98864.48;108665;1264;72579;-23
2023/06/23 07:02:46;;;;;;;9.40;8.60;;;;;;;26.57;61.07;98860.44;108589;1264;74338;-23
2023/06/23 07:05:14;;;;;;;12.00;9.60;;;;;;;26.61;60.16;98857.00;109052;1260;72703;-23
2023/06/23 07:07:41;;;;;;;10.30;9.30;;;;;;;26.47;61.03;98851.85;109056;1258;58860;-23
2023/06/23 07:10:10;;;;;;;10.20;9.10;;;;;;;26.37;60.84;98858.44;109084;1258;59207;-22
2023/06/23 07:12:38;;;;;;;10.30;8.90;;;;;;;26.42;60.96;98857.58;109095;1256;72693;-23
2023/06/23 07:15:09;;;;;;;11.00;9.50;;;;;;;26.61;59.91;98858.48;109089;1257;73020;-23
2023/06/23 07:17:37;;;;;;;18.60;8.90;;;;;;;26.87;60.52;98853.42;109075;1257;71524;-23
2023/06/23 07:20:07;;;;;;;44.90;10.70;;;;;;;27.19;59.35;98854.14;109094;1257;58850;-23
2023/06/23 07:22:35;;;;;;;10.00;8.50;;;;;;;27.30;59.37;98851.30;109032;1256;60013;-23
2023/06/23 07:25:04;;;;;;;11.70;9.40;;;;;;;27.41;59.19;98852.88;109088;1257;72914;-23
2023/06/23 07:27:31;;;;;;;10.40;8.40;;;;;;;27.57;57.84;98851.80;109069;1256;73428;-23
2023/06/23 07:29:59;;;;;;;10.90;8.90;;;;;;;27.74;57.11;98852.07;109036;1263;72697;-23
2023/06/23 07:32:27;;;;;;;16.60;9.40;;;;;;;27.80;56.26;98847.40;109096;1256;59234;-23
2023/06/23 07:34:55;;;;;;;11.50;9.20;;;;;;;27.74;56.59;98849.02;109108;1257;59227;-23
2023/06/23 07:37:22;;;;;;;9.30;8.40;;;;;;;27.82;56.39;98849.19;109091;1256;73852;-23
2023/06/23 07:39:50;;;;;;;10.90;9.10;;;;;;;28.06;57.02;98850.02;109085;1258;74324;-23
2023/06/23 07:42:18;;;;;;;9.90;8.90;;;;;;;28.18;56.71;98845.73;109087;1257;71445;-23
2023/06/23 07:44:45;;;;;;;9.10;8.10;;;;;;;28.34;55.11;98841.04;109094;1256;58840;-23
2023/06/23 07:47:13;;;;;;;9.00;8.10;;;;;;;28.54;55.77;98837.54;109101;1256;60092;-23
2023/06/23 07:49:42;;;;;;;9.90;8.90;;;;;;;28.77;54.84;98833.48;109120;1257;73810;-23
2023/06/23 07:52:09;;;;;;;9.90;8.90;;;;;;;28.84;54.34;98827.53;109113;1257;72962;-23
2023/06/23 07:54:39;;;;;;;9.70;8.80;;;;;;;29.01;54.13;98821.65;109095;1256;71418;-23
2023/06/23 07:57:11;;;;;;;10.30;9.30;;;;;;;29.06;53.13;98820.63;109012;1257;60123;-23
2023/06/23 07:59:41;;;;;;;12.20;8.90;;;;;;;28.95;53.15;98820.03;109012;1264;58786;-23
2023/06/23 08:02:12;;;;;;;10.20;8.70;;;;;;;28.98;52.22;98818.08;109059;1257;73848;-23
2023/06/23 08:04:41;;;;;;;10.00;8.40;;;;;;;29.19;53.34;98818.94;109050;1256;74501;-23
2023/06/23 08:07:12;;;;;;;9.30;7.60;;;;;;;29.56;52.52;98812.58;108969;1256;72650;-23
2023/06/23 08:09:42;;;;;;;9.40;8.40;;;;;;;29.78;51.51;98817.19;109038;1257;60065;-23
2023/06/23 08:12:12;;;;;;;9.80;8.80;;;;;;;29.66;52.18;98811.52;109091;1257;58769;-23
2023/06/23 08:14:41;;;;;;;8.70;7.90;;;;;;;29.52;51.30;98810.84;109068;1256;73860;-23
2023/06/23 08:17:12;;;;;;;8.70;7.70;;;;;;;29.69;51.50;98810.73;109096;1256;74757;-23
2023/06/23 08:19:43;;;;;;;9.50;8.50;;;;;;;29.47;51.89;98819.70;109013;1257;72481;-23
2023/06/23 08:22:14;;;;;;;20.20;8.10;;;;;;;29.36;51.03;98820.87;109091;1257;60031;-23
2023/06/23 08:24:45;;;;;;;7.80;7.10;;;;;;;29.63;50.23;98820.08;109141;1256;58645;-23
2023/06/23 08:27:17;;;;;;;8.70;7.90;;;;;;;30.01;49.21;98823.37;109072;1256;65153;-23
2023/06/23 08:29:47;;;;;;;7.30;6.60;;;;;;;30.23;48.09;98820.39;109102;1256;66552;-23
2023/06/23 08:32:16;;;;;;;8.10;7.30;;;;;;;30.36;47.93;98822.33;109024;1257;62448;-23
2023/06/23 08:34:45;;;;;;;8.20;7.40;;;;;;;30.22;48.55;98829.56;109027;1257;58739;-23
2023/06/23 08:37:17;;;;;;;8.70;7.20;;;;;;;30.23;47.20;98834.02;109012;1257;60039;-23
2023/06/23 08:39:47;;;;;;;7.70;6.90;;;;;;;30.31;47.78;98837.13;108984;1257;65052;-23
2023/06/23 08:42:17;;;;;;;7.80;7.10;;;;;;;30.34;47.96;98844.34;109038;1256;65427;-23
2023/06/23 08:44:46;;;;;;;8.50;7.00;;;;;;;30.46;48.02;98841.06;109019;1257;63748;-23
2023/06/23 08:47:17;;;;;;;7.90;7.20;;;;;;;30.40;46.75;98848.23;109022;1257;58791;-23
2023/06/23 08:49:47;;;;;;;28.70;8.30;;;;;;;30.39;48.23;98852.96;108976;1257;58709;-23
2023/06/23 08:52:17;;;;;;;7.20;6.50;;;;;;;30.14;47.17;98857.16;108983;1256;64948;-23
2023/06/23 08:54:47;;;;;;;8.40;7.40;;;;;;;30.08;48.03;98853.73;109026;1256;74347;-23
2023/06/23 09:04:50;;;;;;;7.00;6.30;;;;;;;29.81;48.68;98853.80;102665;1293;599373;-22
2023/06/23 09:07:18;;;;;;;9.20;6.60;;;;;;;29.30;49.20;98857.21;104857;1265;61503;-23
2023/06/23 09:09:47;;;;;;;7.50;6.80;;;;;;;29.39;49.73;98859.04;104899;1266;61121;-23
2023/06/23 09:12:16;;;;;;;7.70;6.80;;;;;;;29.70;48.65;98853.39;104924;1271;71110;-23
2023/06/23 09:14:44;;;;;;;10.00;7.00;;;;;;;29.27;49.29;98850.90;104830;1271;74479;-23
2023/06/23 09:17:12;;;;;;;8.30;7.30;;;;;;;28.73;50.78;98853.98;104701;1271;70600;-22
2023/06/23 09:19:42;;;;;;;7.00;6.40;;;;;;;28.96;50.91;98848.77;103219;1266;2557994;-23
2023/06/23 09:22:10;;;;;;;7.80;6.80;;;;;;;29.08;48.66;98845.52;104806;1271;61210;-23
2023/06/23 09:24:43;;;;;;;8.40;6.20;;;;;;;29.27;48.31;98842.01;105128;1263;71076;-22
2023/06/23 09:27:11;;;;;;;7.20;6.50;;;;;;;29.73;46.54;98833.25;104783;1263;74291;-23
2023/06/23 09:29:39;;;;;;;7.10;6.00;;;;;;;29.83;46.87;98830.48;104899;1263;71397;-23
2023/06/23 09:32:09;;;;;;;7.10;6.50;;;;;;;29.72;46.48;98834.36;105015;1268;61125;-23
2023/06/23 09:34:41;;;;;;;7.70;5.80;;;;;;;29.73;45.27;98836.84;104976;1263;61064;-23
2023/06/23 09:37:10;;;;;;;5.80;5.30;;;;;;;29.87;44.48;98837.54;104994;1263;73452;-23
2023/06/23 09:39:43;;;;;;;7.40;6.70;;;;;;;30.19;45.63;98839.59;104668;1263;74333;-22
2023/06/23 09:49:54;;;;;;;6.40;5.90;;;;;;;29.78;46.14;98858.45;102557;1296;599397;-22
2023/06/23 09:52:24;;;;;;;6.40;5.70;;;;;;;30.00;45.58;98849.61;104809;1271;61208;-22
2023/06/23 09:54:52;;;;;;;7.20;5.70;;;;;;;30.01;45.19;98841.94;104867;1272;61178;-22
2023/06/23 09:57:19;;;;;;;6.20;5.60;;;;;;;30.05;44.67;98836.17;104732;1271;72283;-22
2023/06/23 09:59:51;;;;;;;5.80;5.30;;;;;;;30.38;44.27;98836.95;104754;1271;64109;-22
2023/06/23 10:02:29;;;;;;;46.80;7.50;;;;;;;30.53;43.02;98838.79;104241;1272;2787032;-23
2023/06/23 10:05:05;;;;;;;6.70;5.70;;;;;;;30.59;42.50;98844.25;104735;1269;62467;-22
2023/06/23 10:07:33;;;;;;;;;;;;;;;30.65;41.56;98844.35;104851;1271;61210;-22
2023/06/23 10:10:04;;;;;;;5.90;5.30;;;;;;;30.66;43.67;98840.69;104796;1270;61112;-23
2023/06/23 10:12:52;;;;;;;6.00;5.20;;;;;;;30.69;43.68;98839.74;104800;1271;63366;-22
2023/06/23 10:15:19;;;;;;;7.20;5.90;;;;;;;30.35;43.83;98841.19;104807;1264;65374;-22
2023/06/23 10:25:26;;;;;;;5.60;5.10;;;;;;;30.57;42.04;98836.45;102589;1292;599427;-22
2023/06/23 10:27:57;;;;;;;6.30;4.80;;;;;;;30.90;42.43;98844.41;104751;1274;61200;-22
2023/06/23 10:38:09;;;;;;;7.20;5.60;;;;;;;31.05;42.04;98853.61;102645;1294;600050;-22
2023/06/23 10:40:41;;;;;;;5.90;5.20;;;;;;;30.95;40.00;98852.87;104867;1267;61159;-22
2023/06/23 10:50:53;;;;;;;6.40;5.70;;;;;;;30.50;41.65;98839.85;102737;1290;600035;-22
2023/06/23 10:53:21;;;;;;;6.20;5.50;;;;;;;30.25;43.30;98845.41;105030;1269;61129;-22
2023/06/23 10:55:54;;;;;;;5.80;5.30;;;;;;;29.97;43.29;98843.67;104929;1264;61065;-22
2023/06/23 10:58:49;;;;;;;6.30;5.70;;;;;;;30.27;43.82;98840.06;104651;1274;70994;-22
2023/06/23 11:01:17;;;;;;;6.40;5.80;;;;;;;30.43;42.58;98836.07;104803;1270;73081;-22
2023/06/23 11:11:33;;;;;;;5.50;5.00;;;;;;;29.71;45.18;98822.19;102698;1292;600564;-22
2023/06/23 11:14:01;;;;;;;54.90;8.00;;;;;;;29.84;43.46;98810.89;104768;1267;61207;-22
2023/06/23 11:16:30;;;;;;;6.80;5.30;;;;;;;29.97;43.27;98808.30;105197;1268;61466;-22
2023/06/23 11:18:58;;;;;;;5.80;5.10;;;;;;;30.17;41.59;98803.27;105647;1260;71981;-24
2023/06/23 11:21:37;;;;;;;5.50;5.00;;;;;;;30.24;42.93;98805.09;105735;1259;73116;-24
2023/06/23 11:24:19;;;;;;;5.90;4.80;;;;;;;30.12;41.37;98813.08;103773;1261;2553182;-24
2023/06/23 11:27:00;;;;;;;5.30;4.80;;;;;;;30.09;42.13;98812.46;105683;1254;61019;-23
2023/06/23 11:29:27;;;;;;;6.20;4.90;;;;;;;29.93;42.16;98808.27;105482;1261;61106;-24
2023/06/23 11:39:33;;;;;;;6.10;4.90;;;;;;;30.37;39.99;98776.04;102847;1293;600201;-23
2023/06/23 11:42:01;;;;;;;5.20;4.70;;;;;;;30.41;42.31;98765.20;104914;1269;61118;-23
2023/06/23 11:44:29;;;;;;;5.10;4.70;;;;;;;30.32;43.11;98765.86;104857;1267;61790;-23
2023/06/23 11:46:56;;;;;;;6.90;4.50;;;;;;;30.34;42.81;98765.39;104835;1272;62026;-23
2023/06/23 11:49:24;;;;;;;5.10;4.60;;;;;;;30.43;40.93;98749.63;104796;1267;74352;-23
